createdAt,value
2023-03-28T00:01:05.607Z,11.20
2023-03-28T00:03:42.130Z,10.80
2023-03-28T00:06:11.941Z,11.30
2023-03-28T00:08:39.652Z,10.00
2023-03-28T00:11:20.677Z,11.20
2023-03-28T00:14:00.117Z,12.90
2023-03-28T00:16:31.592Z,13.30
2023-03-28T00:21:28.748Z,12.20
2023-03-28T00:24:01.228Z,10.40
2023-03-28T00:26:29.591Z,11.90
2023-03-28T00:28:56.236Z,12.00
2023-03-28T00:31:24.628Z,12.50
2023-03-28T00:33:52.257Z,11.00
2023-03-28T00:36:22.436Z,12.20
2023-03-28T00:38:53.150Z,10.00
2023-03-28T00:41:21.509Z,10.50
2023-03-28T00:43:54.961Z,10.10
2023-03-28T00:46:21.895Z,12.40
2023-03-28T00:49:02.775Z,12.20
2023-03-28T00:51:40.918Z,13.00
2023-03-28T00:54:08.842Z,10.50
2023-03-28T00:56:39.396Z,9.80
2023-03-28T00:59:08.325Z,11.80
2023-03-28T01:01:35.065Z,14.80
2023-03-28T01:04:05.027Z,10.60
2023-03-28T01:06:37.208Z,13.20
2023-03-28T01:09:06.776Z,10.80
2023-03-28T01:11:37.705Z,11.70
2023-03-28T01:14:08.503Z,10.90
2023-03-28T01:16:40.886Z,11.20
2023-03-28T01:19:11.790Z,14.90
2023-03-28T01:22:22.933Z,11.20
2023-03-28T01:25:28.572Z,11.60
2023-03-28T01:28:04.167Z,11.00
2023-03-28T01:30:46.982Z,13.20
2023-03-28T01:33:58.435Z,12.60
2023-03-28T01:36:36.279Z,10.50
2023-03-28T01:39:12.220Z,10.80
2023-03-28T01:42:04.460Z,11.70
2023-03-28T01:44:46.532Z,10.50
2023-03-28T01:47:18.062Z,12.10
2023-03-28T01:49:49.160Z,12.00
2023-03-28T01:52:20.195Z,10.20
2023-03-28T01:54:59.794Z,12.20
2023-03-28T01:57:45.698Z,12.20
2023-03-28T02:00:21.243Z,11.70
2023-03-28T02:03:24.576Z,13.10
2023-03-28T02:06:02.667Z,14.30
2023-03-28T02:08:31.959Z,15.60
2023-03-28T02:11:19.697Z,15.20
2023-03-28T02:14:06.509Z,13.70
2023-03-28T02:16:53.663Z,14.50
2023-03-28T02:19:39.508Z,13.70
2023-03-28T02:22:33.693Z,13.80
2023-03-28T02:25:23.561Z,14.20
2023-03-28T02:28:23.623Z,13.40
2023-03-28T02:31:13.006Z,12.70
2023-03-28T02:33:41.903Z,15.90
2023-03-28T02:36:23.277Z,11.10
2023-03-28T02:39:09.336Z,11.40
2023-03-28T02:41:41.503Z,14.10
2023-03-28T02:44:23.193Z,12.70
2023-03-28T02:47:31.314Z,12.90
2023-03-28T02:50:16.893Z,11.10
2023-03-28T02:52:55.837Z,13.20
2023-03-28T02:55:47.353Z,12.00
2023-03-28T03:01:07.515Z,12.20
2023-03-28T03:03:36.632Z,10.50
2023-03-28T03:06:04.360Z,15.40
2023-03-28T03:08:31.067Z,16.40
2023-03-28T03:10:58.189Z,16.20
2023-03-28T03:13:25.335Z,18.80
2023-03-28T03:15:55.475Z,17.90
2023-03-28T03:18:25.689Z,16.10
2023-03-28T03:20:52.927Z,14.40
2023-03-28T03:23:27.035Z,14.50
2023-03-28T03:25:56.245Z,15.60
2023-03-28T03:28:29.516Z,20.20
2023-03-28T03:30:57.952Z,17.80
2023-03-28T03:33:51.282Z,20.10
2023-03-28T03:36:26.552Z,17.90
2023-03-28T03:38:54.013Z,18.30
2023-03-28T03:41:22.127Z,22.50
2023-03-28T03:43:50.786Z,22.10
2023-03-28T03:46:17.739Z,22.90
2023-03-28T03:48:49.968Z,20.00
2023-03-28T03:51:17.572Z,19.90
2023-03-28T03:53:44.333Z,20.60
2023-03-28T03:56:13.476Z,20.40
2023-03-28T03:58:54.317Z,17.20
2023-03-28T04:01:29.450Z,22.90
2023-03-28T04:03:59.162Z,21.20
2023-03-28T04:06:33.787Z,20.10
2023-03-28T04:09:09.570Z,20.60
2023-03-28T04:11:54.678Z,14.70
2023-03-28T04:14:21.658Z,21.10
2023-03-28T04:16:53.208Z,21.10
2023-03-28T04:19:23.557Z,20.30
2023-03-28T04:21:51.927Z,21.80
2023-03-28T04:24:23.667Z,21.40
2023-03-28T04:27:10.168Z,24.90
2023-03-28T04:29:37.149Z,51.30
2023-03-28T04:32:29.077Z,40.60
2023-03-28T04:35:07.654Z,23.90
2023-03-28T04:37:37.108Z,19.20
2023-03-28T04:40:11.145Z,23.30
2023-03-28T04:42:50.521Z,19.60
2023-03-28T04:45:27.835Z,19.30
2023-03-28T04:47:55.705Z,25.00
2023-03-28T04:50:22.584Z,17.50
2023-03-28T04:52:51.254Z,24.10
2023-03-28T04:55:19.376Z,30.10
2023-03-28T04:57:49.779Z,26.70
2023-03-28T05:00:18.632Z,22.00
2023-03-28T05:03:35.785Z,27.00
2023-03-28T05:06:03.648Z,26.10
2023-03-28T05:08:32.163Z,27.00
2023-03-28T05:10:59.325Z,25.70
2023-03-28T05:13:27.243Z,25.60
2023-03-28T05:16:23.086Z,27.00
2023-03-28T05:19:13.395Z,24.40
2023-03-28T05:21:52.277Z,25.30
2023-03-28T05:24:19.029Z,23.90
2023-03-28T05:26:53.481Z,20.10
2023-03-28T05:29:22.931Z,25.10
2023-03-28T05:31:52.714Z,18.50
2023-03-28T05:34:24.677Z,23.10
2023-03-28T05:36:52.458Z,24.30
2023-03-28T05:42:31.627Z,21.60
2023-03-28T05:45:06.221Z,22.60
2023-03-28T05:47:52.571Z,22.90
2023-03-28T05:50:22.090Z,24.40
2023-03-28T05:52:50.653Z,19.70
2023-03-28T05:55:19.068Z,22.40
2023-03-28T05:57:48.551Z,24.90
2023-03-28T06:00:19.313Z,25.40
2023-03-28T06:02:50.434Z,20.30
2023-03-28T06:05:19.704Z,24.30
2023-03-28T06:07:48.202Z,24.80
2023-03-28T06:10:26.117Z,30.60
2023-03-28T06:13:14.272Z,26.10
2023-03-28T06:15:43.694Z,21.20
2023-03-28T06:18:12.535Z,25.00
2023-03-28T06:20:45.128Z,20.20
2023-03-28T06:23:13.207Z,22.40
2023-03-28T06:25:41.704Z,21.90
2023-03-28T06:28:10.824Z,25.60
2023-03-28T06:30:57.576Z,24.30
2023-03-28T06:33:26.881Z,27.10
2023-03-28T06:35:56.172Z,25.30
2023-03-28T06:38:25.356Z,34.00
2023-03-28T06:40:53.608Z,30.80
2023-03-28T06:43:21.647Z,29.10
2023-03-28T06:46:07.801Z,23.20
2023-03-28T06:48:37.482Z,22.90
2023-03-28T06:51:25.960Z,19.60
2023-03-28T06:53:54.485Z,20.70
2023-03-28T06:56:28.588Z,22.70
2023-03-28T06:58:58.770Z,20.20
2023-03-28T07:01:28.641Z,19.20
2023-03-28T07:04:06.259Z,19.80
2023-03-28T07:06:35.688Z,22.80
2023-03-28T07:09:06.134Z,24.00
2023-03-28T07:11:43.968Z,23.40
2023-03-28T07:14:15.223Z,137.50
2023-03-28T07:16:43.643Z,192.00
2023-03-28T07:19:16.375Z,27.80
2023-03-28T07:21:46.903Z,64.70
2023-03-28T07:24:15.842Z,40.00
2023-03-28T07:27:12.307Z,16.50
2023-03-28T07:29:43.214Z,45.70
2023-03-28T07:32:17.277Z,31.10
2023-03-28T07:34:47.167Z,24.60
2023-03-28T07:37:24.321Z,26.20
2023-03-28T07:40:10.929Z,21.60
2023-03-28T07:42:39.966Z,17.30
2023-03-28T07:47:39.148Z,14.80
2023-03-28T07:50:08.186Z,15.90
2023-03-28T07:52:45.373Z,12.90
2023-03-28T07:55:13.951Z,8.50
2023-03-28T07:57:45.735Z,14.70
2023-03-28T08:00:24.317Z,11.70
2023-03-28T08:03:09.218Z,10.80
2023-03-28T08:05:38.543Z,9.20
2023-03-28T08:08:08.012Z,8.70
2023-03-28T08:10:36.990Z,9.90
2023-03-28T08:13:07.285Z,8.40
2023-03-28T08:15:37.962Z,8.40
2023-03-28T08:18:08.079Z,12.80
2023-03-28T08:20:37.847Z,11.50
2023-03-28T08:23:17.435Z,11.20
2023-03-28T08:26:06.300Z,9.50
2023-03-28T08:28:36.991Z,8.10
2023-03-28T08:31:14.506Z,12.30
2023-03-28T08:33:47.344Z,8.60
2023-03-28T08:36:17.472Z,10.50
2023-03-28T08:38:46.823Z,11.70
2023-03-28T08:41:29.488Z,14.40
2023-03-28T08:44:07.114Z,10.50
2023-03-28T08:46:39.421Z,10.20
2023-03-28T08:49:10.236Z,11.60
2023-03-28T08:51:40.838Z,12.00
2023-03-28T08:54:38.214Z,18.80
2023-03-28T08:57:06.614Z,12.90
2023-03-28T09:00:09.111Z,15.20
2023-03-28T09:02:37.430Z,14.10
2023-03-28T09:05:25.228Z,16.00
2023-03-28T09:08:19.267Z,17.50
2023-03-28T09:11:12.983Z,21.10
2023-03-28T09:13:56.869Z,19.90
2023-03-28T09:17:03.482Z,21.30
2023-03-28T09:19:48.606Z,23.30
2023-03-28T09:23:01.040Z,20.20
2023-03-28T09:25:42.021Z,24.20
2023-03-28T09:28:31.948Z,20.70
2023-03-28T09:31:01.371Z,13.60
2023-03-28T09:33:35.612Z,15.30
2023-03-28T09:36:11.694Z,12.30
2023-03-28T09:38:43.753Z,12.90
2023-03-28T09:41:39.783Z,12.90
2023-03-28T09:44:51.343Z,11.00
2023-03-28T09:48:02.144Z,14.60
2023-03-28T09:50:31.757Z,9.80
2023-03-28T09:53:01.168Z,9.90
2023-03-28T09:55:31.325Z,7.40
2023-03-28T09:58:13.233Z,10.00
2023-03-28T10:01:05.428Z,9.00
2023-03-28T10:04:12.965Z,11.90
2023-03-28T10:07:10.127Z,10.90
2023-03-28T10:09:51.444Z,8.70
2023-03-28T10:12:42.043Z,7.10
2023-03-28T10:15:41.531Z,6.80
2023-03-28T10:18:18.615Z,9.70
2023-03-28T10:20:51.624Z,8.30
2023-03-28T10:23:21.589Z,9.70
2023-03-28T10:25:53.122Z,9.90
2023-03-28T10:28:33.876Z,8.80
2023-03-28T10:31:03.533Z,16.00
2023-03-28T10:33:54.356Z,11.80
2023-03-28T10:36:42.931Z,9.30
2023-03-28T10:39:29.791Z,9.70
2023-03-28T10:42:16.730Z,11.30
2023-03-28T10:45:00.920Z,6.50
2023-03-28T10:47:31.466Z,6.10
2023-03-28T10:50:03.985Z,6.70
2023-03-28T10:53:04.220Z,8.50
2023-03-28T10:55:38.703Z,11.20
2023-03-28T10:58:34.675Z,8.50
2023-03-28T11:01:10.213Z,10.50
2023-03-28T11:03:53.459Z,11.10
2023-03-28T11:06:23.256Z,8.50
2023-03-28T11:09:01.987Z,12.60
2023-03-28T11:12:23.080Z,10.90
2023-03-28T11:15:09.390Z,7.90
2023-03-28T11:17:56.023Z,6.90
2023-03-28T11:20:29.176Z,8.40
2023-03-28T11:23:06.383Z,8.60
2023-03-28T11:25:56.973Z,11.90
2023-03-28T11:31:28.744Z,9.30
2023-03-28T11:34:19.991Z,11.20
2023-03-28T11:36:53.973Z,9.60
2023-03-28T11:39:44.600Z,10.20
2023-03-28T11:42:20.865Z,7.30
2023-03-28T11:45:00.407Z,8.90
2023-03-28T11:47:32.796Z,9.60
2023-03-28T11:50:47.357Z,26.30
2023-03-28T11:53:49.320Z,35.00
2023-03-28T11:56:36.734Z,33.20
2023-03-28T11:59:19.772Z,11.10
2023-03-28T12:01:50.903Z,10.30
2023-03-28T12:04:31.080Z,10.20
2023-03-28T12:07:30.514Z,6.90
2023-03-28T12:10:36.084Z,10.70
2023-03-28T12:13:27.375Z,20.00
2023-03-28T12:16:03.647Z,10.50
2023-03-28T12:18:39.026Z,8.20
2023-03-28T12:21:15.694Z,11.90
2023-03-28T12:24:13.754Z,14.60
2023-03-28T12:26:55.909Z,11.10
2023-03-28T12:29:47.367Z,12.00
2023-03-28T12:32:35.277Z,11.00
2023-03-28T12:35:18.020Z,10.30
2023-03-28T12:38:17.125Z,11.50
2023-03-28T12:40:55.504Z,7.90
2023-03-28T12:43:40.691Z,8.10
2023-03-28T12:46:12.250Z,8.80
2023-03-28T12:49:04.590Z,9.30
2023-03-28T12:52:01.939Z,8.10
2023-03-28T12:54:33.220Z,6.60
2023-03-28T12:57:05.186Z,11.10
2023-03-28T12:59:35.998Z,9.10
2023-03-28T13:02:37.173Z,12.90
2023-03-28T13:05:17.822Z,8.20
2023-03-28T13:08:09.857Z,22.70
2023-03-28T13:10:57.103Z,23.90
2023-03-28T13:13:42.253Z,12.30
2023-03-28T13:16:14.727Z,21.50
2023-03-28T13:19:09.991Z,13.00
2023-03-28T13:21:53.347Z,17.70
2023-03-28T13:24:31.891Z,21.50
2023-03-28T13:27:21.644Z,24.10
2023-03-28T13:29:51.156Z,22.40
2023-03-28T13:32:23.747Z,21.10
2023-03-28T13:34:59.985Z,18.40
2023-03-28T13:37:43.133Z,15.10
2023-03-28T13:41:00.836Z,11.20
2023-03-28T13:43:33.733Z,9.80
2023-03-28T13:46:11.352Z,9.20
2023-03-28T13:48:51.819Z,8.40
2023-03-28T13:51:24.941Z,8.30
2023-03-28T13:53:53.099Z,9.40
2023-03-28T13:56:26.463Z,7.60
2023-03-28T13:58:56.694Z,6.80
2023-03-28T14:01:27.024Z,7.00
2023-03-28T14:03:56.131Z,7.70
2023-03-28T14:06:26.682Z,11.00
2023-03-28T14:11:30.627Z,8.50
2023-03-28T14:14:26.048Z,8.10
2023-03-28T14:16:54.305Z,9.20
2023-03-28T14:19:34.290Z,7.20
2023-03-28T14:22:25.823Z,8.50
2023-03-28T14:25:01.526Z,7.40
2023-03-28T14:27:41.299Z,6.20
2023-03-28T14:30:17.322Z,5.60
2023-03-28T14:33:02.527Z,6.80
2023-03-28T14:35:32.487Z,4.20
2023-03-28T14:38:05.877Z,3.00
2023-03-28T14:40:41.149Z,2.90
2023-03-28T14:43:10.402Z,2.10
2023-03-28T14:45:41.237Z,1.80
2023-03-28T14:48:13.392Z,4.60
2023-03-28T14:50:42.093Z,3.40
2023-03-28T14:53:27.674Z,1.90
2023-03-28T14:56:04.072Z,1.30
2023-03-28T14:58:37.005Z,2.10
2023-03-28T15:01:05.900Z,2.20
2023-03-28T15:03:39.168Z,1.70
2023-03-28T15:06:08.488Z,2.30
2023-03-28T15:08:38.271Z,1.50
2023-03-28T15:11:08.692Z,1.30
2023-03-28T15:13:38.996Z,0.90
2023-03-28T15:16:08.166Z,1.30
2023-03-28T15:18:44.618Z,1.20
2023-03-28T15:21:12.845Z,3.00
2023-03-28T15:23:48.971Z,1.40
2023-03-28T15:26:25.646Z,1.20
2023-03-28T15:28:54.753Z,2.10
2023-03-28T15:31:22.986Z,1.50
2023-03-28T15:33:51.881Z,1.90
2023-03-28T15:36:29.074Z,1.20
2023-03-28T15:39:25.830Z,2.90
2023-03-28T15:41:59.519Z,1.50
2023-03-28T15:44:39.297Z,1.80
2023-03-28T15:47:13.156Z,1.70
2023-03-28T15:49:41.542Z,2.30
2023-03-28T15:52:18.194Z,2.20
2023-03-28T15:54:52.196Z,2.30
2023-03-28T15:57:22.530Z,2.00
2023-03-28T15:59:55.037Z,2.90
2023-03-28T16:02:23.445Z,2.10
2023-03-28T16:05:07.980Z,2.00
2023-03-28T16:07:37.082Z,2.20
2023-03-28T16:10:07.507Z,2.10
2023-03-28T16:12:38.735Z,2.50
2023-03-28T16:15:27.716Z,11.90
2023-03-28T16:18:01.211Z,2.80
2023-03-28T16:20:37.538Z,3.90
2023-03-28T16:23:07.231Z,1.60
2023-03-28T16:25:35.561Z,1.40
2023-03-28T16:28:03.733Z,1.50
2023-03-28T16:30:38.257Z,4.30
2023-03-28T16:33:09.579Z,1.50
2023-03-28T16:35:38.186Z,4.80
2023-03-28T16:38:07.329Z,4.60
2023-03-28T16:40:36.571Z,3.90
2023-03-28T16:43:04.669Z,2.80
2023-03-28T16:45:33.212Z,1.80
2023-03-28T16:48:01.532Z,1.60
2023-03-28T16:50:29.843Z,1.90
2023-03-28T16:52:57.732Z,2.80
2023-03-28T16:55:26.549Z,2.10
2023-03-28T16:57:54.657Z,1.80
2023-03-28T17:00:32.016Z,1.80
2023-03-28T17:03:01.282Z,1.80
2023-03-28T17:05:29.514Z,1.30
2023-03-28T17:07:59.579Z,2.00
2023-03-28T17:10:29.564Z,1.40
2023-03-28T17:13:02.544Z,2.00
2023-03-28T17:15:32.251Z,2.40
2023-03-28T17:18:01.514Z,1.90
2023-03-28T17:20:31.323Z,2.10
2023-03-28T17:25:29.334Z,1.70
2023-03-28T17:27:57.479Z,1.40
2023-03-28T17:30:26.678Z,2.50
2023-03-28T17:32:56.314Z,1.80
2023-03-28T17:35:24.706Z,2.50
2023-03-28T17:37:57.854Z,1.90
2023-03-28T17:40:26.570Z,2.00
2023-03-28T17:42:54.822Z,1.70
2023-03-28T17:45:23.002Z,4.50
2023-03-28T17:47:52.506Z,2.20
2023-03-28T17:50:21.854Z,1.50
2023-03-28T17:52:50.798Z,1.50
2023-03-28T17:55:18.819Z,1.60
2023-03-28T17:59:46.489Z,4.40
2023-03-28T18:02:14.055Z,4.20
2023-03-28T18:04:43.981Z,3.40
2023-03-28T18:07:17.949Z,4.80
2023-03-28T18:09:51.131Z,3.50
2023-03-28T18:12:18.403Z,4.40
2023-03-28T18:14:45.413Z,4.40
2023-03-28T18:17:15.439Z,5.70
2023-03-28T18:19:42.786Z,4.30
2023-03-28T18:22:10.059Z,3.30
2023-03-28T18:24:37.602Z,2.50
2023-03-28T18:27:04.339Z,4.10
2023-03-28T18:29:31.590Z,3.30
2023-03-28T18:31:58.538Z,6.50
2023-03-28T18:34:26.447Z,6.60
2023-03-28T18:36:55.333Z,4.80
2023-03-28T18:39:25.372Z,3.90
2023-03-28T18:41:52.348Z,11.20
2023-03-28T18:44:19.005Z,8.20
2023-03-28T18:46:53.934Z,5.90
2023-03-28T18:49:22.002Z,3.40
2023-03-28T18:51:48.666Z,2.30
2023-03-28T18:54:17.570Z,3.40
2023-03-28T18:56:44.603Z,2.30
2023-03-28T18:59:17.052Z,2.10
2023-03-28T19:01:50.547Z,1.50
2023-03-28T19:04:18.522Z,1.80
2023-03-28T19:06:45.886Z,1.80
2023-03-28T19:09:13.295Z,2.00
2023-03-28T19:11:41.751Z,2.70
2023-03-28T19:14:09.097Z,2.10
2023-03-28T19:16:36.823Z,4.30
2023-03-28T19:19:03.701Z,2.10
2023-03-28T19:21:31.329Z,2.10
2023-03-28T19:23:58.156Z,3.90
2023-03-28T19:26:25.726Z,2.10
2023-03-28T19:28:52.929Z,2.50
2023-03-28T19:31:23.550Z,2.60
2023-03-28T19:36:17.535Z,2.20
2023-03-28T19:38:45.228Z,2.80
2023-03-28T19:41:22.377Z,2.30
2023-03-28T19:43:54.639Z,2.20
2023-03-28T19:46:26.231Z,2.00
2023-03-28T19:49:01.387Z,3.30
2023-03-28T19:51:28.371Z,2.20
2023-03-28T19:53:55.434Z,3.10
2023-03-28T19:56:22.898Z,4.20
2023-03-28T19:58:51.381Z,5.30
2023-03-28T20:01:23.008Z,6.00
2023-03-28T20:03:52.339Z,5.40
2023-03-28T20:06:20.216Z,2.40
2023-03-28T20:08:47.014Z,4.70
2023-03-28T20:11:13.965Z,4.10
2023-03-28T20:13:41.036Z,5.10
2023-03-28T20:16:11.348Z,3.20
2023-03-28T20:18:38.672Z,3.20
2023-03-28T20:21:09.717Z,3.00
2023-03-28T20:23:36.693Z,2.90
2023-03-28T20:26:17.594Z,4.70
2023-03-28T20:28:46.147Z,3.80
2023-03-28T20:31:13.048Z,3.90
2023-03-28T20:33:40.235Z,3.10
2023-03-28T20:36:07.135Z,2.50
2023-03-28T20:38:35.339Z,2.80
2023-03-28T20:41:02.144Z,3.50
2023-03-28T20:43:35.175Z,4.40
2023-03-28T20:46:02.630Z,4.60
2023-03-28T20:48:36.129Z,3.60
2023-03-28T20:51:13.739Z,2.40
2023-03-28T20:53:42.737Z,3.00
2023-03-28T20:56:10.920Z,4.00
2023-03-28T20:58:39.173Z,5.60
2023-03-28T21:01:06.832Z,3.10
2023-03-28T21:03:50.472Z,3.70
2023-03-28T21:06:18.820Z,5.80
2023-03-28T21:08:48.302Z,5.00
2023-03-28T21:11:16.836Z,4.30
2023-03-28T21:13:51.353Z,3.80
2023-03-28T21:16:18.711Z,5.00
2023-03-28T21:18:47.324Z,4.30
2023-03-28T21:21:16.622Z,10.50
2023-03-28T21:23:44.137Z,5.20
2023-03-28T21:26:12.749Z,5.40
2023-03-28T21:28:39.576Z,4.20
2023-03-28T21:31:10.981Z,3.70
2023-03-28T21:33:38.510Z,3.90
2023-03-28T21:36:06.621Z,2.50
2023-03-28T21:38:34.123Z,2.70
2023-03-28T21:53:51.300Z,2.50
2023-03-28T21:56:19.249Z,2.70
2023-03-28T22:11:10.950Z,3.40
2023-03-28T22:13:42.821Z,4.60
2023-03-28T22:16:13.010Z,2.30
2023-03-28T22:18:41.813Z,2.60
2023-03-28T22:21:14.012Z,1.80
2023-03-28T22:23:47.074Z,3.20
2023-03-28T22:26:27.261Z,2.40
2023-03-28T22:28:57.834Z,1.90
2023-03-28T22:31:27.675Z,2.80
2023-03-28T22:33:57.096Z,3.50
2023-03-28T22:36:25.671Z,2.20
2023-03-28T22:38:57.029Z,2.40
2023-03-28T22:41:25.817Z,4.90
2023-03-28T22:43:54.607Z,3.10
2023-03-28T22:46:22.692Z,4.70
2023-03-28T22:48:58.627Z,2.10
2023-03-28T22:51:34.272Z,4.20
2023-03-28T22:54:04.079Z,3.00
2023-03-28T22:56:32.177Z,3.20
2023-03-28T22:59:01.509Z,3.30
2023-03-28T23:01:30.864Z,2.30
2023-03-28T23:04:01.230Z,3.30
2023-03-28T23:06:29.799Z,3.10
2023-03-28T23:08:58.755Z,4.70
2023-03-28T23:11:37.068Z,2.40
2023-03-28T23:14:06.688Z,3.10
2023-03-28T23:16:35.130Z,2.40
2023-03-28T23:19:06.926Z,1.80
2023-03-28T23:21:36.960Z,3.20
2023-03-28T23:24:05.318Z,3.00
2023-03-28T23:26:34.404Z,5.30
2023-03-28T23:29:02.888Z,3.30
2023-03-28T23:31:31.603Z,4.90
2023-03-28T23:33:59.894Z,3.40
2023-03-28T23:36:30.300Z,3.70
2023-03-28T23:38:58.656Z,3.00
2023-03-28T23:41:26.636Z,2.20
2023-03-28T23:43:54.919Z,2.70
2023-03-28T23:46:24.380Z,2.30
2023-03-28T23:48:53.810Z,3.60
2023-03-28T23:51:24.545Z,4.00
2023-03-28T23:53:52.615Z,2.50
2023-03-28T23:56:22.221Z,2.20
2023-03-28T23:58:50.902Z,3.50
